Cains Store, Kentucky
Current Conditions -  °F | °C
As of 9:15 AM on Thursday 18 Dec 2014 (Local Time) from KSME Reporting Station
Overcast Overcast  
Wind Chill: 30°   Ceiling: 8500
Heat Index: 30°   Visibility: 7mi
Dew Point: 28°   Wind: 3mph
Humidity: 93%   Direction: 100°E
Pressure: 30.25"   Gusts: NA
Location:  37.0701°N, 84.793°W
Report Text: KSME 181415Z AUTO 10003KT 7SM SCT010 OVC085 M01/M02 A3025 RMK AO2
Loading
Personal Weather Stations






























Interactive Weather Map New forecast layout! Learn more

10-Day Weather Forecast

Advertisements
Track Severe Weather on mobile